Time;durP1;ratioP1;P1;durP2;ratioP2;P2;SDS_P1;SDS_P2;PMS_P1;PMS_P2;Temp;Humidity;BMP_temperature;BMP_pressure;BME280_temperature;BME280_humidity;BME280_pressure;Samples;Min_cycle;Max_cycle;Signal;HPM_P1;HPM_P2
2022/11/03 00:01:38;;;;;;;35.50;5.45;;;;;;;10.61;100.00;97626.28;5048193;28;20432;-83
2022/11/03 00:04:05;;;;;;;22.85;5.78;;;;;;;10.82;100.00;97618.84;5021620;28;20119;-83
2022/11/03 00:06:31;;;;;;;35.53;4.50;;;;;;;10.98;100.00;97623.34;5052501;28;20036;-84
2022/11/03 00:08:59;;;;;;;27.80;4.40;;;;;;;11.02;100.00;97622.91;5022276;28;20108;-83
2022/11/03 00:11:25;;;;;;;25.75;4.00;;;;;;;10.63;100.00;97611.13;5028794;28;20108;-83
2022/11/03 00:13:51;;;;;;;23.10;4.20;;;;;;;10.88;100.00;97627.59;5044509;28;20119;-83
2022/11/03 00:16:18;;;;;;;26.35;5.10;;;;;;;10.74;100.00;97624.44;5041531;28;20033;-83
2022/11/03 00:18:44;;;;;;;19.40;3.88;;;;;;;10.61;100.00;97623.66;5057783;28;20474;-84
2022/11/03 00:21:11;;;;;;;15.48;4.10;;;;;;;10.89;100.00;97630.00;5037565;28;20031;-83
2022/11/03 00:23:39;;;;;;;21.08;3.70;;;;;;;10.75;100.00;97626.84;5045203;28;20033;-86
2022/11/03 00:26:17;;;;;;;20.85;4.45;;;;;;;10.74;100.00;97629.69;5051684;28;20040;-84
2022/11/03 00:28:45;;;;;;;18.55;3.45;;;;;;;10.66;100.00;97620.34;5054517;28;20108;-84
2022/11/03 00:31:17;;;;;;;23.08;5.35;;;;;;;10.84;100.00;97619.41;5055963;28;20029;-83
2022/11/03 00:33:43;;;;;;;25.77;4.03;;;;;;;10.74;100.00;97616.56;5042148;28;20033;-82
2022/11/03 00:36:17;;;;;;;19.38;3.92;;;;;;;10.77;100.00;97609.03;5040288;28;20385;-83
2022/11/03 00:38:44;;;;;;;18.45;4.07;;;;;;;10.59;100.00;97614.41;5042602;28;20496;-83
2022/11/03 00:41:11;;;;;;;24.80;4.90;;;;;;;10.68;100.00;97608.59;5041410;28;20091;-84
2022/11/03 00:43:37;;;;;;;21.52;4.55;;;;;;;10.64;100.00;97602.22;5045290;28;20039;-82
2022/11/03 00:46:04;;;;;;;20.98;3.22;;;;;;;10.67;100.00;97599.13;5048531;28;20048;-84
2022/11/03 00:48:32;;;;;;;22.10;5.28;;;;;;;10.74;100.00;97604.25;5046218;28;20077;-84
2022/11/03 00:51:10;;;;;;;22.38;3.95;;;;;;;10.90;100.00;97599.28;5029942;28;20031;-83
2022/11/03 00:53:38;;;;;;;14.18;3.30;;;;;;;10.66;100.00;97594.91;5052414;28;20035;-84
2022/11/03 00:56:06;;;;;;;15.73;3.22;;;;;;;10.51;100.00;97605.06;5028813;28;20021;-83
2022/11/03 00:58:32;;;;;;;15.13;3.30;;;;;;;10.62;100.00;97599.03;5056798;28;20028;-86
2022/11/03 01:01:23;;;;;;;30.33;4.30;;;;;;;10.40;100.00;97604.00;5028960;28;20033;-83
2022/11/03 01:06:50;;;;;;;18.98;3.42;;;;;;;10.49;100.00;97604.50;5043865;28;20029;-82
2022/11/03 01:09:16;;;;;;;20.83;3.45;;;;;;;10.48;100.00;97598.44;5045115;28;20025;-83
2022/11/03 01:11:57;;;;;;;17.80;3.35;;;;;;;10.46;100.00;97612.84;5042336;28;20032;-83
2022/11/03 01:14:25;;;;;;;19.95;3.35;;;;;;;10.62;100.00;97614.75;5048744;28;20033;-84
2022/11/03 01:16:51;;;;;;;18.35;3.67;;;;;;;10.60;100.00;97611.53;5049874;28;20170;-83
2022/11/03 01:19:16;;;;;;;16.30;3.60;;;;;;;10.51;100.00;97624.22;5043083;28;20171;-83
2022/11/03 01:21:43;;;;;;;14.27;3.40;;;;;;;10.48;100.00;97613.41;5045258;28;20033;-83
2022/11/03 01:24:08;;;;;;;16.02;3.80;;;;;;;10.63;100.00;97607.69;5042004;28;20028;-83
2022/11/03 01:26:34;;;;;;;17.92;3.80;;;;;;;10.27;100.00;97602.44;5053005;28;20035;-82
2022/11/03 01:29:00;;;;;;;21.63;4.15;;;;;;;10.41;100.00;97593.31;5048617;28;20123;-84
2022/11/03 01:31:26;;;;;;;15.63;3.90;;;;;;;10.38;100.00;97592.97;5054216;28;20028;-84
2022/11/03 01:33:53;;;;;;;25.55;4.07;;;;;;;10.41;100.00;97598.56;5026656;28;20043;-84
2022/11/03 01:36:19;;;;;;;21.45;4.18;;;;;;;10.52;100.00;97588.28;5040091;28;20166;-83
2022/11/03 01:38:46;;;;;;;22.60;3.67;;;;;;;10.43;100.00;97579.97;5050808;28;20055;-84
2022/11/03 01:41:17;;;;;;;19.38;3.60;;;;;;;10.39;100.00;97574.34;5037986;28;20495;-83
2022/11/03 01:43:42;;;;;;;16.77;4.72;;;;;;;10.39;100.00;97574.34;5041150;28;20032;-85
2022/11/03 01:46:17;;;;;;;19.98;3.45;;;;;;;10.48;100.00;97587.16;5043510;28;20044;-84
2022/11/03 01:49:06;;;;;;;23.17;3.47;;;;;;;10.35;100.00;97573.22;5041891;28;20028;-84
2022/11/03 01:51:35;;;;;;;14.88;3.10;;;;;;;10.36;100.00;97569.56;5053009;28;20025;-87
2022/11/03 01:54:06;;;;;;;21.13;3.67;;;;;;;10.34;100.00;97568.22;5048544;28;20029;-87
2022/11/03 01:56:35;;;;;;;12.73;3.38;;;;;;;10.37;100.00;97571.16;5046130;28;20036;-86
2022/11/03 01:59:01;;;;;;;15.65;3.00;;;;;;;10.05;100.00;97568.09;5024293;28;20100;-85
2022/11/03 02:01:29;;;;;;;25.00;3.10;;;;;;;10.31;100.00;97563.41;5042176;28;20029;-85
2022/11/03 02:04:00;;;;;;;22.15;3.85;;;;;;;10.28;100.00;97554.19;5048733;28;20064;-83
2022/11/03 02:06:28;;;;;;;21.35;3.50;;;;;;;10.28;100.00;97567.31;5040306;28;20033;-83
2022/11/03 02:09:08;;;;;;;16.58;3.55;;;;;;;10.35;100.00;97565.34;5030016;28;20040;-84
2022/11/03 02:14:19;;;;;;;28.50;4.03;;;;;;;10.32;100.00;97568.44;5040453;28;20059;-84
2022/11/03 02:16:52;;;;;;;23.17;3.72;;;;;;;10.11;100.00;97573.22;5047834;28;20033;-84
2022/11/03 02:19:33;;;;;;;17.73;3.23;;;;;;;10.19;100.00;97569.47;5056403;28;20024;-83
2022/11/03 02:22:21;;;;;;;15.38;3.65;;;;;;;10.26;100.00;97566.72;5023078;28;20501;-83
2022/11/03 02:24:51;;;;;;;16.77;3.20;;;;;;;10.29;100.00;97567.06;5055073;28;20025;-83
2022/11/03 02:27:19;;;;;;;28.00;4.03;;;;;;;10.13;100.00;97565.94;5051741;28;20025;-83
2022/11/03 02:29:45;;;;;;;26.33;3.92;;;;;;;10.18;100.00;97557.38;5041128;28;20037;-85
2022/11/03 02:32:22;;;;;;;23.60;3.83;;;;;;;10.17;100.00;97554.97;5042719;28;20029;-83
2022/11/03 02:34:59;;;;;;;15.55;3.53;;;;;;;10.21;100.00;97561.34;5056061;28;20025;-84
2022/11/03 02:37:30;;;;;;;14.93;2.83;;;;;;;10.34;100.00;97555.09;5045121;28;20116;-84
2022/11/03 02:40:05;;;;;;;19.52;4.05;;;;;;;10.36;100.00;97547.81;5024945;28;20474;-84
2022/11/03 02:42:32;;;;;;;22.25;3.55;;;;;;;10.47;100.00;97559.34;5029637;28;20028;-84
2022/11/03 02:45:01;;;;;;;16.50;3.83;;;;;;;10.18;100.00;97549.53;5046036;28;20032;-85
2022/11/03 02:47:29;;;;;;;17.60;3.28;;;;;;;10.26;100.00;97538.66;5023283;28;20415;-84
2022/11/03 02:49:56;;;;;;;21.20;3.33;;;;;;;10.21;100.00;97540.38;5044596;28;20033;-84
2022/11/03 02:52:45;;;;;;;19.55;3.22;;;;;;;10.28;100.00;97554.19;5047286;28;20410;-84
2022/11/03 02:55:18;;;;;;;18.38;3.15;;;;;;;10.18;100.00;97548.72;5058639;28;20534;-83
2022/11/03 02:57:59;;;;;;;17.60;3.27;;;;;;;10.35;100.00;97552.22;5044900;28;20040;-83
2022/11/03 03:00:28;;;;;;;16.77;3.70;;;;;;;10.19;100.00;97547.69;5047839;28;20036;-84
2022/11/03 03:03:20;;;;;;;30.17;4.93;;;;;;;10.33;100.00;97543.81;5041699;28;20029;-83
2022/11/03 03:05:51;;;;;;;20.17;3.95;;;;;;;10.39;100.00;97539.47;5049505;28;20045;-83
2022/11/03 03:08:19;;;;;;;16.25;4.13;;;;;;;10.18;100.00;97538.22;5058242;28;20101;-83
2022/11/03 03:10:47;;;;;;;18.02;3.20;;;;;;;10.36;100.00;97538.09;5045700;28;20036;-83
2022/11/03 03:13:16;;;;;;;20.17;4.00;;;;;;;10.09;100.00;97533.34;5039939;28;20072;-84
2022/11/03 03:15:45;;;;;;;23.48;5.25;;;;;;;10.37;100.00;97544.94;5039999;28;20120;-83
2022/11/03 03:18:31;;;;;;;21.67;3.80;;;;;;;10.15;100.00;97531.63;5053110;28;20372;-84
2022/11/03 03:21:04;;;;;;;19.90;3.92;;;;;;;10.10;100.00;97523.63;5029053;28;20078;-84
2022/11/03 03:23:36;;;;;;;23.58;4.85;;;;;;;10.32;100.00;97542.22;5040603;28;20033;-84
2022/11/03 03:26:04;;;;;;;23.60;4.15;;;;;;;10.14;100.00;97549.16;5043129;28;20025;-85
2022/11/03 03:28:39;;;;;;;22.25;3.63;;;;;;;10.14;100.00;97525.56;5044229;28;20473;-84
2022/11/03 03:31:08;;;;;;;29.30;5.30;;;;;;;10.29;100.00;97519.06;5042527;28;20028;-83
2022/11/03 03:33:34;;;;;;;13.70;3.63;;;;;;;10.34;100.00;97519.16;5060913;28;20031;-84
2022/11/03 03:36:05;;;;;;;20.38;4.18;;;;;;;10.37;100.00;97520.53;5038515;28;20391;-83
2022/11/03 03:38:38;;;;;;;22.88;3.90;;;;;;;10.29;100.00;97527.72;5027632;28;20115;-84
2022/11/03 03:41:10;;;;;;;25.30;4.15;;;;;;;10.23;100.00;97517.38;5061017;28;20048;-85
2022/11/03 03:43:40;;;;;;;25.17;3.65;;;;;;;10.42;100.00;97537.22;5042045;28;20032;-83
2022/11/03 03:46:10;;;;;;;21.63;4.47;;;;;;;10.46;100.00;97536.75;5063577;28;20076;-83
2022/11/03 03:48:36;;;;;;;23.98;4.00;;;;;;;10.25;100.00;97526.59;5046915;28;20101;-84
2022/11/03 03:51:03;;;;;;;27.17;4.53;;;;;;;10.33;100.00;97528.06;5041016;28;20032;-83
2022/11/03 03:53:29;;;;;;;21.38;4.25;;;;;;;10.13;100.00;97523.97;5045344;28;20139;-83
2022/11/03 03:55:57;;;;;;;27.38;3.78;;;;;;;10.17;100.00;97529.56;5053244;28;20450;-85
2022/11/03 03:58:22;;;;;;;26.05;4.43;;;;;;;10.25;100.00;97520.56;5058012;28;20021;-85
2022/11/03 04:00:48;;;;;;;18.27;3.67;;;;;;;10.32;100.00;97530.91;5042113;28;20040;-85
2022/11/03 04:03:16;;;;;;;18.00;3.80;;;;;;;10.36;100.00;97527.59;5060111;28;20389;-84
2022/11/03 04:05:43;;;;;;;21.67;3.75;;;;;;;10.18;100.00;97535.59;5034184;28;20028;-85
2022/11/03 04:08:09;;;;;;;20.33;3.83;;;;;;;10.03;100.00;97531.63;5048398;28;20070;-84
2022/11/03 04:10:35;;;;;;;20.27;3.95;;;;;;;10.24;100.00;97524.22;5040843;28;20033;-85
2022/11/03 04:23:48;;;;;;;21.67;4.35;;;;;;;10.08;100.00;97544.03;5057325;28;20082;-84
2022/11/03 04:26:17;;;;;;;20.88;4.40;;;;;;;10.01;100.00;97531.03;5049670;28;20479;-84
2022/11/03 04:28:43;;;;;;;18.15;3.75;;;;;;;10.15;100.00;97540.28;5053677;28;20024;-84
2022/11/03 04:31:11;;;;;;;20.65;4.20;;;;;;;10.26;100.00;97537.88;5029842;28;20154;-84
2022/11/03 04:33:38;;;;;;;24.05;4.80;;;;;;;10.26;100.00;97548.38;5035906;28;20044;-85
2022/11/03 04:36:23;;;;;;;28.17;4.20;;;;;;;10.23;100.00;97544.38;5046007;28;20097;-85
2022/11/03 04:38:50;;;;;;;17.00;3.75;;;;;;;10.28;100.00;97535.84;5041334;28;20352;-86
2022/11/03 04:41:29;;;;;;;21.58;3.95;;;;;;;10.25;100.00;97541.53;5060072;28;20047;-84
2022/11/03 04:43:55;;;;;;;24.73;3.55;;;;;;;10.25;100.00;97546.78;5049043;28;20037;-85
2022/11/03 04:46:30;;;;;;;14.95;3.28;;;;;;;10.25;100.00;97546.78;5060338;28;20117;-84
2022/11/03 04:48:59;;;;;;;31.98;5.15;;;;;;;10.05;100.00;97552.34;5030656;28;20367;-84
2022/11/03 04:51:28;;;;;;;17.90;3.47;;;;;;;10.21;100.00;97550.88;5048261;28;20075;-83
2022/11/03 04:54:00;;;;;;;19.83;4.05;;;;;;;10.20;100.00;97557.94;5045549;28;20036;-84
2022/11/03 04:56:27;;;;;;;28.25;4.40;;;;;;;10.16;100.00;97554.19;5043063;28;20355;-85
2022/11/03 04:58:52;;;;;;;15.63;3.42;;;;;;;10.12;100.00;97553.84;5053790;28;20044;-84
2022/11/03 05:01:20;;;;;;;21.30;4.10;;;;;;;10.14;100.00;97546.56;5024498;28;20066;-85
2022/11/03 05:03:49;;;;;;;23.35;3.97;;;;;;;10.18;100.00;97552.13;5032659;28;20122;-86
2022/11/03 05:06:18;;;;;;;25.48;4.20;;;;;;;10.13;100.00;97544.94;5060351;28;20029;-84
2022/11/03 05:08:51;;;;;;;20.83;3.97;;;;;;;10.14;100.00;97546.56;5038540;28;20029;-86
2022/11/03 05:11:31;;;;;;;18.92;3.92;;;;;;;10.12;100.00;97548.59;5029008;28;20497;-85
2022/11/03 05:14:03;;;;;;;17.48;3.78;;;;;;;10.01;100.00;97552.00;5055409;28;20032;-85
2022/11/03 05:16:30;;;;;;;25.70;4.90;;;;;;;9.86;100.00;97549.84;5038055;28;20029;-84
2022/11/03 05:18:56;;;;;;;12.05;3.13;;;;;;;9.98;100.00;97534.13;5038109;28;20033;-84
2022/11/03 05:21:24;;;;;;;20.77;4.57;;;;;;;10.08;100.00;97542.22;5048755;28;20063;-84
2022/11/03 05:23:55;;;;;;;16.40;4.43;;;;;;;10.03;100.00;97531.63;5042788;28;20056;-84
2022/11/03 05:26:28;;;;;;;20.70;3.72;;;;;;;10.07;100.00;97530.16;5038242;28;20036;-83
2022/11/03 05:29:01;;;;;;;10.98;3.60;;;;;;;10.01;100.00;97525.78;5023673;28;20037;-84
2022/11/03 05:31:33;;;;;;;21.40;4.10;;;;;;;9.99;100.00;97507.69;5040884;28;20061;-84
2022/11/03 05:34:01;;;;;;;24.73;3.78;;;;;;;9.99;100.00;97506.88;5042007;28;20032;-84
2022/11/03 05:36:28;;;;;;;16.73;4.00;;;;;;;9.96;100.00;97507.34;5049861;28;20033;-83
2022/11/03 05:39:27;;;;;;;18.60;4.03;;;;;;;9.99;100.00;97512.13;5058735;28;20059;-83
2022/11/03 05:41:53;;;;;;;23.13;4.15;;;;;;;9.90;100.00;97503.03;5043916;28;20036;-83
2022/11/03 05:44:25;;;;;;;27.10;5.45;;;;;;;9.97;100.00;97508.94;5032450;28;20038;-85
2022/11/03 05:46:51;;;;;;;25.15;3.80;;;;;;;9.89;100.00;97512.69;5047074;28;20052;-85
2022/11/03 05:49:17;;;;;;;26.25;4.72;;;;;;;9.77;100.00;97496.97;5050276;28;20408;-84
2022/11/03 05:51:44;;;;;;;16.77;4.10;;;;;;;9.80;100.00;97493.09;5026776;28;20105;-85
2022/11/03 05:54:32;;;;;;;18.60;3.40;;;;;;;9.85;100.00;97496.63;5028614;28;20067;-83
2022/11/03 05:56:59;;;;;;;20.05;4.13;;;;;;;9.84;100.00;97504.72;5055989;28;20029;-85
2022/11/03 05:59:28;;;;;;;24.63;4.60;;;;;;;9.85;100.00;97504.50;5058726;28;20055;-87
2022/11/03 06:01:59;;;;;;;20.67;4.47;;;;;;;9.84;100.00;97491.63;5057202;28;20033;-85
2022/11/03 06:04:39;;;;;;;23.73;4.50;;;;;;;9.84;100.00;97495.06;5050487;28;20108;-85
2022/11/03 06:07:22;;;;;;;29.13;4.95;;;;;;;9.83;100.00;97492.66;5053408;28;20036;-85
2022/11/03 06:09:48;;;;;;;26.00;4.50;;;;;;;9.71;100.00;97495.25;5053609;28;20086;-85
2022/11/03 06:12:18;;;;;;;25.50;4.07;;;;;;;9.85;100.00;97494.03;5024206;28;20116;-85
2022/11/03 06:14:43;;;;;;;27.10;4.28;;;;;;;9.80;100.00;97483.41;5057015;28;20501;-85
2022/11/03 06:17:32;;;;;;;20.90;4.13;;;;;;;9.83;100.00;97480.34;5061822;28;20029;-85
2022/11/03 06:19:59;;;;;;;21.88;4.05;;;;;;;9.88;100.00;97484.09;5045460;28;20044;-85
2022/11/03 06:22:37;;;;;;;26.80;4.50;;;;;;;9.79;100.00;97481.81;5043616;28;20086;-86
2022/11/03 06:25:29;;;;;;;23.00;3.55;;;;;;;9.84;100.00;97489.81;5010882;28;20131;-85
2022/11/03 06:27:59;;;;;;;20.60;3.75;;;;;;;9.86;100.00;97494.81;5049579;28;20048;-89
2022/11/03 06:30:31;;;;;;;28.45;4.78;;;;;;;9.89;100.00;97485.69;5044897;28;20498;-86
2022/11/03 06:33:00;;;;;;;16.27;4.00;;;;;;;9.89;100.00;97488.31;5060483;28;20017;-88
2022/11/03 06:35:26;;;;;;;17.67;4.70;;;;;;;9.85;100.00;97491.41;5056367;28;20033;-88
2022/11/03 06:37:52;;;;;;;22.83;4.30;;;;;;;9.90;100.00;97509.03;5042377;28;20395;-84
2022/11/03 06:40:18;;;;;;;14.23;3.67;;;;;;;9.88;100.00;97499.84;5056218;28;20123;-86
2022/11/03 06:42:43;;;;;;;21.33;4.05;;;;;;;9.88;100.00;97489.34;5050597;28;20116;-84
2022/11/03 06:45:22;;;;;;;19.80;3.78;;;;;;;9.88;100.00;97491.97;5040852;28;20064;-85
2022/11/03 06:47:48;;;;;;;17.17;3.50;;;;;;;9.85;100.00;97491.41;5045262;28;20426;-86
2022/11/03 06:50:26;;;;;;;21.10;4.18;;;;;;;9.88;100.00;97486.72;5025845;28;20029;-87
2022/11/03 06:52:54;;;;;;;19.73;4.53;;;;;;;9.89;100.00;97496.19;5045174;28;20083;-87
2022/11/03 06:55:28;;;;;;;19.73;4.60;;;;;;;9.85;100.00;97496.63;5066029;28;20040;-89
2022/11/03 06:58:15;;;;;;;18.42;3.67;;;;;;;9.90;100.00;97492.53;5047524;28;20064;-87
2022/11/03 07:00:42;;;;;;;20.08;4.28;;;;;;;9.84;100.00;97481.94;5026040;28;20061;-87
2022/11/03 07:03:32;;;;;;;18.00;4.25;;;;;;;9.93;100.00;97489.44;5043134;28;20029;-88
2022/11/03 07:06:10;;;;;;;20.63;4.65;;;;;;;9.95;100.00;97490.84;5057428;28;20024;-89
2022/11/03 07:08:48;;;;;;;21.42;6.18;;;;;;;9.85;100.00;97480.91;5058047;28;20033;-88
2022/11/03 07:11:45;;;;;;;21.25;5.68;;;;;;;9.81;100.00;97479.75;5032959;28;21607;-88
2022/11/03 07:14:13;;;;;;;23.25;4.97;;;;;;;9.85;100.00;97480.09;4993962;28;20105;-87
2022/11/03 07:16:46;;;;;;;30.08;6.57;;;;;;;9.86;100.00;97466.78;5045115;28;20037;-87
2022/11/03 07:19:25;;;;;;;22.05;4.25;;;;;;;9.98;100.00;97481.69;5040959;28;20032;-88
2022/11/03 07:21:53;;;;;;;21.33;4.90;;;;;;;9.86;100.00;97477.28;5048754;28;20448;-88
2022/11/03 07:24:22;;;;;;;18.38;4.10;;;;;;;9.94;100.00;97484.00;5046006;28;20039;-88
2022/11/03 07:26:52;;;;;;;26.63;4.50;;;;;;;9.92;100.00;97490.47;5041095;28;20034;-89
2022/11/03 07:29:21;;;;;;;21.08;4.20;;;;;;;9.91;100.00;97487.03;5022708;28;20123;-88
2022/11/03 07:31:50;;;;;;;27.65;4.57;;;;;;;9.90;100.00;97487.28;5031342;28;20036;-88
2022/11/03 07:34:21;;;;;;;24.45;4.95;;;;;;;9.90;100.00;97489.91;5043661;28;20037;-87
2022/11/03 07:36:49;;;;;;;27.38;4.95;;;;;;;9.96;100.00;97487.19;5048132;28;20086;-87
2022/11/03 07:39:18;;;;;;;20.25;5.07;;;;;;;9.92;100.00;97477.38;5058232;28;20029;-88
2022/11/03 07:41:44;;;;;;;18.77;5.57;;;;;;;9.96;100.00;97481.13;5024289;28;20034;-88
2022/11/03 07:44:19;;;;;;;22.17;4.45;;;;;;;10.05;100.00;97497.31;5043774;28;20052;-86
2022/11/03 07:46:45;;;;;;;22.38;4.75;;;;;;;10.10;100.00;97500.84;5025675;28;20044;-84
2022/11/03 07:49:28;;;;;;;27.42;5.20;;;;;;;10.13;100.00;97508.25;5049468;28;20037;-86
2022/11/03 07:51:58;;;;;;;21.08;5.10;;;;;;;10.07;100.00;97482.97;5025349;28;20115;-85
2022/11/03 07:54:27;;;;;;;22.27;4.70;;;;;;;10.18;100.00;97497.06;5045008;28;20029;-88
2022/11/03 07:57:02;;;;;;;17.63;5.63;;;;;;;10.02;100.00;97490.69;5057699;28;20036;-86
2022/11/03 07:59:35;;;;;;;23.67;4.40;;;;;;;10.05;100.00;97487.63;5048853;28;20121;-86
2022/11/03 08:02:12;;;;;;;16.40;3.90;;;;;;;10.10;100.00;97492.97;5029355;28;20061;-86
2022/11/03 08:04:38;;;;;;;18.05;4.28;;;;;;;10.12;100.00;97482.25;5061748;28;20035;-85
2022/11/03 08:07:03;;;;;;;22.83;5.00;;;;;;;10.15;100.00;97482.59;5050975;28;20029;-86
2022/11/03 08:09:29;;;;;;;22.58;4.80;;;;;;;10.14;100.00;97467.91;5025065;28;20560;-88
2022/11/03 08:11:55;;;;;;;30.30;4.95;;;;;;;10.17;100.00;97481.56;5022227;28;20083;-85
2022/11/03 08:14:20;;;;;;;30.50;6.55;;;;;;;10.26;100.00;97474.94;5041639;28;20332;-86
2022/11/03 08:16:46;;;;;;;30.77;6.63;;;;;;;10.33;100.00;97483.47;5051280;28;20056;-88
2022/11/03 08:19:12;;;;;;;31.40;6.70;;;;;;;10.36;100.00;97484.84;5046719;28;20119;-88
2022/11/03 08:21:37;;;;;;;27.92;4.57;;;;;;;10.30;100.00;97468.22;5051667;28;20430;-87
2022/11/03 08:24:04;;;;;;;28.95;5.18;;;;;;;10.52;100.00;97478.91;5048247;28;20030;-86
2022/11/03 08:26:30;;;;;;;23.08;4.03;;;;;;;10.50;100.00;97473.09;5050846;28;20472;-88
2022/11/03 08:28:56;;;;;;;29.65;5.38;;;;;;;10.59;100.00;97472.72;5041459;28;20038;-87
2022/11/03 08:31:21;;;;;;;24.80;5.45;;;;;;;10.63;100.00;97484.34;5047160;28;20547;-86
2022/11/03 08:33:47;;;;;;;26.67;4.78;;;;;;;10.55;100.00;97467.16;5057115;28;20368;-86
2022/11/03 08:36:12;;;;;;;27.67;5.10;;;;;;;10.57;100.00;97471.13;5048774;28;20022;-88
2022/11/03 08:38:38;;;;;;;25.77;4.60;;;;;;;10.70;100.00;97464.00;5042859;28;20040;-86
2022/11/03 08:41:04;;;;;;;37.63;6.40;;;;;;;10.79;100.00;97467.06;5049280;28;20029;-89
2022/11/03 08:43:30;;;;;;;24.70;5.38;;;;;;;10.71;100.00;97482.16;5029492;28;20024;-88
2022/11/03 08:45:55;;;;;;;21.33;4.32;;;;;;;10.96;100.00;97482.88;5028765;28;20120;-87
2022/11/03 08:48:26;;;;;;;27.40;4.43;;;;;;;10.88;100.00;97485.84;5046695;28;20112;-87
2022/11/03 08:50:53;;;;;;;27.15;4.80;;;;;;;10.97;100.00;97482.63;5051692;28;20033;-87
2022/11/03 08:53:20;;;;;;;24.83;5.00;;;;;;;10.67;100.00;97486.28;5044582;28;20032;-86
2022/11/03 08:55:45;;;;;;;26.08;6.50;;;;;;;10.83;100.00;97486.56;5056793;28;20045;-90
2022/11/03 08:58:11;;;;;;;31.65;5.97;;;;;;;10.63;100.00;97472.03;5049678;28;20036;-89
2022/11/03 09:00:37;;;;;;;23.15;5.63;;;;;;;10.74;100.00;97459.09;5027018;28;20056;-88
2022/11/03 09:03:03;;;;;;;23.45;5.07;;;;;;;10.58;100.00;97461.44;5059331;28;20076;-87
2022/11/03 09:05:29;;;;;;;23.55;5.47;;;;;;;10.71;100.00;97450.66;5032688;28;20029;-90
2022/11/03 09:07:54;;;;;;;26.42;4.30;;;;;;;10.94;100.00;97448.19;5048749;28;20025;-87
2022/11/03 09:10:21;;;;;;;21.27;5.10;;;;;;;10.67;100.00;97436.44;5045554;28;20021;-88
2022/11/03 09:12:46;;;;;;;22.52;4.75;;;;;;;10.93;100.00;97428.22;5055846;28;20025;-87
2022/11/03 09:15:12;;;;;;;19.55;4.22;;;;;;;11.02;100.00;97434.66;5054085;28;20040;-88
2022/11/03 09:17:37;;;;;;;21.35;4.65;;;;;;;11.10;100.00;97428.22;5048601;28;20037;-86
2022/11/03 09:20:05;;;;;;;24.10;4.78;;;;;;;11.22;100.00;97423.72;5045902;28;20024;-88
2022/11/03 09:22:32;;;;;;;21.20;5.68;;;;;;;11.39;100.00;97412.38;5051588;28;20035;-87
2022/11/03 09:25:00;;;;;;;22.10;4.35;;;;;;;11.48;100.00;97416.22;5050128;28;20033;-87
2022/11/03 09:27:26;;;;;;;23.10;5.85;;;;;;;11.57;100.00;97414.75;5066423;28;20039;-88
2022/11/03 09:29:51;;;;;;;27.00;6.78;;;;;;;11.68;100.00;97414.91;5029690;28;20032;-86
2022/11/03 09:32:17;;;;;;;22.55;6.93;;;;;;;11.69;100.00;97411.25;5045131;28;20029;-87
2022/11/03 09:34:43;;;;;;;29.48;6.93;;;;;;;11.77;100.00;97429.22;5060538;28;20035;-88
2022/11/03 09:37:10;;;;;;;22.35;6.60;;;;;;;11.85;100.00;97420.13;5050830;28;20068;-88
2022/11/03 09:39:36;;;;;;;28.33;5.82;;;;;;;11.81;100.00;97419.84;5030984;28;20057;-89
2022/11/03 09:42:03;;;;;;;20.75;5.68;;;;;;;11.93;100.00;97417.09;5046398;28;20043;-89
2022/11/03 09:44:32;;;;;;;25.23;5.75;;;;;;;12.03;100.00;97420.91;5048008;28;20119;-87
2022/11/03 09:46:58;;;;;;;17.95;4.95;;;;;;;12.26;100.00;97406.72;5065461;28;20076;-87
2022/11/03 09:49:26;;;;;;;26.85;5.95;;;;;;;12.21;100.00;97423.25;5046301;28;20510;-87
2022/11/03 09:51:53;;;;;;;25.45;5.43;;;;;;;12.57;100.00;97420.19;5069229;28;20036;-86
2022/11/03 09:54:19;;;;;;;28.25;4.68;;;;;;;12.19;100.00;97420.06;5045706;28;20034;-86
2022/11/03 09:56:46;;;;;;;21.83;5.22;;;;;;;12.49;100.00;97410.13;5025836;28;20111;-85
2022/11/03 09:59:15;;;;;;;30.98;4.82;;;;;;;12.45;100.00;97422.19;5046611;28;20542;-85
2022/11/03 10:01:44;;;;;;;22.95;5.25;;;;;;;12.00;100.00;97416.91;5053564;28;20072;-86
2022/11/03 10:04:11;;;;;;;17.92;5.25;;;;;;;12.28;100.00;97423.06;5058915;28;20029;-85
2022/11/03 10:06:38;;;;;;;18.05;4.80;;;;;;;12.05;100.00;97427.53;5048221;28;20037;-86
2022/11/03 10:09:06;;;;;;;28.25;6.30;;;;;;;11.89;100.00;97436.22;5050061;28;20036;-86
2022/11/03 10:11:33;;;;;;;24.23;6.10;;;;;;;12.15;100.00;97429.50;5066534;28;20036;-85
2022/11/03 10:14:00;;;;;;;30.63;5.63;;;;;;;12.05;100.00;97421.47;5052255;28;20028;-85
2022/11/03 10:16:26;;;;;;;23.55;5.55;;;;;;;12.38;100.00;97410.03;5032365;28;20099;-85
2022/11/03 10:18:53;;;;;;;21.70;4.70;;;;;;;12.35;100.00;97418.41;5046636;28;20037;-86
2022/11/03 10:21:22;;;;;;;29.90;6.20;;;;;;;12.34;100.00;97410.75;5065738;28;21511;-85
2022/11/03 10:23:49;;;;;;;25.45;5.20;;;;;;;12.77;100.00;97409.09;5056308;28;20021;-85
2022/11/03 10:26:17;;;;;;;27.13;5.15;;;;;;;12.61;100.00;97410.00;5053565;28;20494;-85
2022/11/03 10:28:58;;;;;;;21.48;5.32;;;;;;;12.52;100.00;97414.91;5053753;28;20053;-83
2022/11/03 10:31:39;;;;;;;24.77;5.50;;;;;;;12.37;100.00;97421.56;5042216;28;20033;-85
2022/11/03 10:34:23;;;;;;;22.48;5.05;;;;;;;12.52;100.00;97422.78;5049134;28;20510;-85
2022/11/03 10:36:49;;;;;;;17.98;4.90;;;;;;;12.33;100.00;97415.22;5053951;28;20033;-85
2022/11/03 10:39:29;;;;;;;22.58;5.15;;;;;;;12.52;100.00;97414.91;5042537;28;20501;-85
2022/11/03 10:41:58;;;;;;;24.25;5.65;;;;;;;12.76;100.00;97417.22;5039404;28;20033;-87
2022/11/03 10:44:29;;;;;;;24.77;4.57;;;;;;;12.73;100.00;97405.38;5013974;28;20024;-85
2022/11/03 10:47:02;;;;;;;17.67;4.60;;;;;;;13.22;100.00;97409.75;5047224;28;20049;-87
2022/11/03 10:49:29;;;;;;;;;;;;;;;13.13;100.00;97413.88;5057969;28;20042;-85
2022/11/03 10:51:58;;;;;;;;;;;;;;;13.02;100.00;97414.84;5057080;28;19920;-86
2022/11/03 10:54:23;;;;;;;;;;;;;;;13.06;100.00;97400.13;5054760;28;19976;-87
2022/11/03 10:56:51;;;;;;;;;;;;;;;13.29;100.00;97402.41;5057559;28;20401;-86
2022/11/03 10:59:23;;;;;;;;;;;;;;;13.16;100.00;97394.16;5039284;28;19913;-85
2022/11/03 11:01:48;;;;;;;;;;;;;;;13.72;100.00;97396.38;5035836;28;19956;-85
2022/11/03 11:04:18;;;;;;;;;;;;;;;13.96;100.00;97401.28;5051620;28;19913;-85
2022/11/03 11:06:45;;;;;;;;;;;;;;;13.92;100.00;97400.97;5052182;28;19913;-86
2022/11/03 11:09:16;;;;;;;;;;;;;;;14.12;100.00;97397.63;5054283;28;19966;-87
2022/11/03 11:12:01;;;;;;;;;;;;;;;14.34;100.00;97386.09;5062694;28;19919;-86
2022/11/03 11:14:27;;;;;;;;;;;;;;;14.59;100.00;97394.34;5027843;28;19991;-87
2022/11/03 11:17:02;;;;;;;;;;;;;;;14.74;100.00;97394.38;5058205;28;19943;-86
2022/11/03 11:19:28;;;;;;;;;;;;;;;14.96;100.00;97391.50;5059947;28;19935;-87
2022/11/03 11:21:53;;;;;;;;;;;;;;;14.83;100.00;97387.53;5065133;28;19917;-86
2022/11/03 11:24:37;;;;;;;;;;;;;;;14.67;100.00;97389.34;5040823;28;19920;-88
2022/11/03 11:27:23;;;;;;;;;;;;;;;14.50;100.00;97380.84;5049362;28;20394;-87
2022/11/03 11:29:49;;;;;;;;;;;;;;;14.58;100.00;97375.06;5040231;28;19913;-87
2022/11/03 11:32:47;;;;;;;;;;;;;;;14.47;100.00;97373.44;5047559;28;19935;-85
2022/11/03 11:35:25;;;;;;;;;;;;;;;14.68;100.00;97375.06;5040287;28;20321;-86
2022/11/03 11:37:52;;;;;;;;;;;;;;;14.59;100.00;97381.94;5036539;28;19924;-87
2022/11/03 11:40:23;;;;;;;;;;;;;;;14.80;100.00;97372.22;5054597;28;20347;-86
2022/11/03 11:43:01;;;;;;;;;;;;;;;14.61;100.00;97369.25;5048757;28;19969;-85
2022/11/03 11:45:45;;;;;;;;;;;;;;;14.51;100.00;97379.78;5029765;28;20000;-86
2022/11/03 11:48:15;;;;;;;;;;;;;;;14.84;100.00;97372.47;5052763;28;19924;-85
2022/11/03 11:50:41;;;;;;;;;;;;;;;14.93;100.00;97376.16;5046147;28;19922;-85
2022/11/03 11:53:06;;;;;;;;;;;;;;;14.92;100.00;97369.31;5050694;28;19912;-86
2022/11/03 11:55:50;;;;;;;;;;;;;;;14.57;100.00;97366.34;5040517;28;19974;-86
2022/11/03 11:58:15;;;;;;;;;;;;;;;14.51;100.00;97374.50;5041768;28;19912;-85